sensor_id;sensor_type;location;lat;lon;timestamp;P1;durP1;ratioP1;P2;durP2;ratioP2
62945;SDS011;52164;52.212;-1.010;2022-10-26T00:00:02;0.60;;;0.60;;
62945;SDS011;52164;52.212;-1.010;2022-10-26T00:02:29;0.60;;;0.60;;
62945;SDS011;52164;52.212;-1.010;2022-10-26T00:04:54;0.60;;;0.60;;
62945;SDS011;52164;52.212;-1.010;2022-10-26T00:07:20;0.60;;;0.60;;
62945;SDS011;52164;52.212;-1.010;2022-10-26T00:09:45;0.60;;;0.60;;
62945;SDS011;52164;52.212;-1.010;2022-10-26T00:12:10;0.60;;;0.60;;
62945;SDS011;52164;52.212;-1.010;2022-10-26T00:14:37;0.60;;;0.60;;
62945;SDS011;52164;52.212;-1.010;2022-10-26T00:17:02;0.60;;;0.60;;
62945;SDS011;52164;52.212;-1.010;2022-10-26T00:19:28;0.60;;;0.60;;
62945;SDS011;52164;52.212;-1.010;2022-10-26T00:21:56;0.60;;;0.60;;
62945;SDS011;52164;52.212;-1.010;2022-10-26T00:24:22;0.60;;;0.60;;
62945;SDS011;52164;52.212;-1.010;2022-10-26T00:26:47;0.60;;;0.60;;
62945;SDS011;52164;52.212;-1.010;2022-10-26T00:29:13;0.60;;;0.60;;
62945;SDS011;52164;52.212;-1.010;2022-10-26T00:31:38;0.60;;;0.60;;
62945;SDS011;52164;52.212;-1.010;2022-10-26T00:34:04;0.50;;;0.50;;
62945;SDS011;52164;52.212;-1.010;2022-10-26T00:36:30;0.50;;;0.50;;
62945;SDS011;52164;52.212;-1.010;2022-10-26T00:38:56;0.60;;;0.60;;
62945;SDS011;52164;52.212;-1.010;2022-10-26T00:41:24;0.60;;;0.60;;
62945;SDS011;52164;52.212;-1.010;2022-10-26T00:43:51;0.60;;;0.60;;
62945;SDS011;52164;52.212;-1.010;2022-10-26T00:46:19;0.60;;;0.60;;
62945;SDS011;52164;52.212;-1.010;2022-10-26T00:48:50;0.60;;;0.60;;
62945;SDS011;52164;52.212;-1.010;2022-10-26T00:51:21;0.60;;;0.60;;
62945;SDS011;52164;52.212;-1.010;2022-10-26T00:53:47;0.60;;;0.60;;
62945;SDS011;52164;52.212;-1.010;2022-10-26T00:56:13;0.70;;;0.70;;
62945;SDS011;52164;52.212;-1.010;2022-10-26T00:58:39;0.70;;;0.70;;
62945;SDS011;52164;52.212;-1.010;2022-10-26T01:01:06;0.50;;;0.50;;
62945;SDS011;52164;52.212;-1.010;2022-10-26T01:03:31;0.60;;;0.60;;
62945;SDS011;52164;52.212;-1.010;2022-10-26T01:06:00;0.60;;;0.60;;
62945;SDS011;52164;52.212;-1.010;2022-10-26T01:08:27;0.60;;;0.60;;
62945;SDS011;52164;52.212;-1.010;2022-10-26T01:10:54;0.60;;;0.60;;
62945;SDS011;52164;52.212;-1.010;2022-10-26T01:13:22;0.50;;;0.50;;
62945;SDS011;52164;52.212;-1.010;2022-10-26T01:16:08;0.60;;;0.60;;
62945;SDS011;52164;52.212;-1.010;2022-10-26T01:19:31;0.60;;;0.60;;
62945;SDS011;52164;52.212;-1.010;2022-10-26T01:24:11;0.60;;;0.60;;
62945;SDS011;52164;52.212;-1.010;2022-10-26T01:27:50;0.60;;;0.60;;
62945;SDS011;52164;52.212;-1.010;2022-10-26T01:29:38;0.60;;;0.60;;
62945;SDS011;52164;52.212;-1.010;2022-10-26T01:32:33;0.50;;;0.50;;
62945;SDS011;52164;52.212;-1.010;2022-10-26T01:35:07;0.50;;;0.50;;
62945;SDS011;52164;52.212;-1.010;2022-10-26T01:37:40;0.60;;;0.60;;
62945;SDS011;52164;52.212;-1.010;2022-10-26T01:40:16;0.60;;;0.60;;
62945;SDS011;52164;52.212;-1.010;2022-10-26T01:42:47;0.60;;;0.60;;
62945;SDS011;52164;52.212;-1.010;2022-10-26T01:45:16;0.50;;;0.50;;
62945;SDS011;52164;52.212;-1.010;2022-10-26T01:47:43;0.60;;;0.60;;
62945;SDS011;52164;52.212;-1.010;2022-10-26T01:50:10;0.60;;;0.60;;
62945;SDS011;52164;52.212;-1.010;2022-10-26T01:52:36;0.60;;;0.60;;
62945;SDS011;52164;52.212;-1.010;2022-10-26T01:55:03;0.60;;;0.60;;
62945;SDS011;52164;52.212;-1.010;2022-10-26T01:57:31;0.50;;;0.50;;
62945;SDS011;52164;52.212;-1.010;2022-10-26T02:00:16;0.60;;;0.60;;
62945;SDS011;52164;52.212;-1.010;2022-10-26T02:05:50;0.60;;;0.60;;
62945;SDS011;52164;52.212;-1.010;2022-10-26T02:08:35;0.60;;;0.60;;
62945;SDS011;52164;52.212;-1.010;2022-10-26T02:13:54;0.50;;;0.50;;
62945;SDS011;52164;52.212;-1.010;2022-10-26T02:16:42;0.60;;;0.60;;
62945;SDS011;52164;52.212;-1.010;2022-10-26T02:19:50;0.50;;;0.50;;
62945;SDS011;52164;52.212;-1.010;2022-10-26T02:22:06;0.50;;;0.50;;
62945;SDS011;52164;52.212;-1.010;2022-10-26T02:24:52;0.50;;;0.50;;
62945;SDS011;52164;52.212;-1.010;2022-10-26T02:27:21;0.50;;;0.50;;
62945;SDS011;52164;52.212;-1.010;2022-10-26T02:29:51;0.60;;;0.60;;
62945;SDS011;52164;52.212;-1.010;2022-10-26T02:32:20;0.50;;;0.50;;
62945;SDS011;52164;52.212;-1.010;2022-10-26T02:34:47;0.50;;;0.50;;
62945;SDS011;52164;52.212;-1.010;2022-10-26T02:37:16;0.60;;;0.60;;
62945;SDS011;52164;52.212;-1.010;2022-10-26T02:39:44;0.60;;;0.60;;
62945;SDS011;52164;52.212;-1.010;2022-10-26T02:42:13;0.60;;;0.60;;
62945;SDS011;52164;52.212;-1.010;2022-10-26T02:44:42;0.50;;;0.50;;
62945;SDS011;52164;52.212;-1.010;2022-10-26T02:47:11;0.60;;;0.60;;
62945;SDS011;52164;52.212;-1.010;2022-10-26T02:49:37;0.60;;;0.60;;
62945;SDS011;52164;52.212;-1.010;2022-10-26T02:52:05;0.60;;;0.60;;
62945;SDS011;52164;52.212;-1.010;2022-10-26T02:54:43;0.50;;;0.50;;
62945;SDS011;52164;52.212;-1.010;2022-10-26T02:57:23;0.60;;;0.60;;
62945;SDS011;52164;52.212;-1.010;2022-10-26T02:59:57;0.60;;;0.60;;
62945;SDS011;52164;52.212;-1.010;2022-10-26T03:02:24;0.60;;;0.60;;
62945;SDS011;52164;52.212;-1.010;2022-10-26T03:04:50;0.60;;;0.60;;
62945;SDS011;52164;52.212;-1.010;2022-10-26T03:07:20;0.60;;;0.60;;
62945;SDS011;52164;52.212;-1.010;2022-10-26T03:09:49;0.50;;;0.50;;
62945;SDS011;52164;52.212;-1.010;2022-10-26T03:12:15;0.60;;;0.60;;
62945;SDS011;52164;52.212;-1.010;2022-10-26T03:14:40;0.60;;;0.60;;
62945;SDS011;52164;52.212;-1.010;2022-10-26T03:17:08;0.60;;;0.60;;
62945;SDS011;52164;52.212;-1.010;2022-10-26T03:19:33;0.50;;;0.50;;
62945;SDS011;52164;52.212;-1.010;2022-10-26T03:21:59;0.60;;;0.60;;
62945;SDS011;52164;52.212;-1.010;2022-10-26T03:24:24;0.60;;;0.60;;
62945;SDS011;52164;52.212;-1.010;2022-10-26T03:26:49;0.50;;;0.50;;
62945;SDS011;52164;52.212;-1.010;2022-10-26T03:29:15;0.50;;;0.50;;
62945;SDS011;52164;52.212;-1.010;2022-10-26T03:31:40;0.60;;;0.60;;
62945;SDS011;52164;52.212;-1.010;2022-10-26T03:34:06;0.60;;;0.60;;
62945;SDS011;52164;52.212;-1.010;2022-10-26T03:36:31;0.60;;;0.60;;
62945;SDS011;52164;52.212;-1.010;2022-10-26T03:38:57;0.50;;;0.50;;
62945;SDS011;52164;52.212;-1.010;2022-10-26T03:41:23;0.50;;;0.50;;
62945;SDS011;52164;52.212;-1.010;2022-10-26T03:43:48;0.60;;;0.60;;
62945;SDS011;52164;52.212;-1.010;2022-10-26T03:46:13;0.60;;;0.60;;
62945;SDS011;52164;52.212;-1.010;2022-10-26T03:48:39;0.50;;;0.50;;
62945;SDS011;52164;52.212;-1.010;2022-10-26T03:51:04;0.50;;;0.50;;
62945;SDS011;52164;52.212;-1.010;2022-10-26T03:53:30;0.50;;;0.50;;
62945;SDS011;52164;52.212;-1.010;2022-10-26T03:55:56;0.50;;;0.50;;
62945;SDS011;52164;52.212;-1.010;2022-10-26T03:58:21;0.60;;;0.60;;
62945;SDS011;52164;52.212;-1.010;2022-10-26T04:00:47;0.60;;;0.60;;
62945;SDS011;52164;52.212;-1.010;2022-10-26T04:03:12;0.50;;;0.50;;
62945;SDS011;52164;52.212;-1.010;2022-10-26T04:05:38;0.50;;;0.50;;
62945;SDS011;52164;52.212;-1.010;2022-10-26T04:08:03;0.60;;;0.60;;
62945;SDS011;52164;52.212;-1.010;2022-10-26T04:10:29;0.60;;;0.60;;
62945;SDS011;52164;52.212;-1.010;2022-10-26T04:12:55;0.50;;;0.50;;
62945;SDS011;52164;52.212;-1.010;2022-10-26T04:15:23;0.50;;;0.50;;
62945;SDS011;52164;52.212;-1.010;2022-10-26T04:17:57;0.60;;;0.60;;
62945;SDS011;52164;52.212;-1.010;2022-10-26T04:20:24;0.60;;;0.60;;
62945;SDS011;52164;52.212;-1.010;2022-10-26T04:22:58;0.60;;;0.60;;
62945;SDS011;52164;52.212;-1.010;2022-10-26T04:25:25;0.50;;;0.50;;
62945;SDS011;52164;52.212;-1.010;2022-10-26T04:27:51;0.50;;;0.50;;
62945;SDS011;52164;52.212;-1.010;2022-10-26T04:30:17;0.50;;;0.50;;
62945;SDS011;52164;52.212;-1.010;2022-10-26T04:32:43;0.50;;;0.50;;
62945;SDS011;52164;52.212;-1.010;2022-10-26T04:35:08;0.50;;;0.50;;
62945;SDS011;52164;52.212;-1.010;2022-10-26T04:37:33;0.50;;;0.50;;
62945;SDS011;52164;52.212;-1.010;2022-10-26T04:39:59;0.50;;;0.50;;
62945;SDS011;52164;52.212;-1.010;2022-10-26T04:42:24;0.60;;;0.60;;
62945;SDS011;52164;52.212;-1.010;2022-10-26T04:44:50;0.50;;;0.50;;
62945;SDS011;52164;52.212;-1.010;2022-10-26T04:47:15;0.60;;;0.60;;
62945;SDS011;52164;52.212;-1.010;2022-10-26T04:49:40;0.60;;;0.60;;
62945;SDS011;52164;52.212;-1.010;2022-10-26T04:52:06;0.50;;;0.50;;
62945;SDS011;52164;52.212;-1.010;2022-10-26T04:54:31;0.50;;;0.50;;
62945;SDS011;52164;52.212;-1.010;2022-10-26T04:56:57;0.60;;;0.60;;
62945;SDS011;52164;52.212;-1.010;2022-10-26T04:59:22;0.50;;;0.50;;
62945;SDS011;52164;52.212;-1.010;2022-10-26T05:01:47;0.60;;;0.60;;
62945;SDS011;52164;52.212;-1.010;2022-10-26T05:04:13;0.50;;;0.50;;
62945;SDS011;52164;52.212;-1.010;2022-10-26T05:06:38;0.50;;;0.50;;
62945;SDS011;52164;52.212;-1.010;2022-10-26T05:09:04;0.50;;;0.50;;
62945;SDS011;52164;52.212;-1.010;2022-10-26T05:11:32;0.50;;;0.50;;
62945;SDS011;52164;52.212;-1.010;2022-10-26T05:13:57;0.60;;;0.60;;
62945;SDS011;52164;52.212;-1.010;2022-10-26T05:16:23;0.50;;;0.50;;
62945;SDS011;52164;52.212;-1.010;2022-10-26T05:18:48;0.50;;;0.50;;
62945;SDS011;52164;52.212;-1.010;2022-10-26T05:21:14;0.60;;;0.60;;
62945;SDS011;52164;52.212;-1.010;2022-10-26T05:23:47;0.60;;;0.60;;
62945;SDS011;52164;52.212;-1.010;2022-10-26T05:26:15;0.60;;;0.60;;
62945;SDS011;52164;52.212;-1.010;2022-10-26T05:28:41;0.50;;;0.50;;
62945;SDS011;52164;52.212;-1.010;2022-10-26T05:31:06;0.60;;;0.60;;
62945;SDS011;52164;52.212;-1.010;2022-10-26T05:33:31;0.60;;;0.60;;
62945;SDS011;52164;52.212;-1.010;2022-10-26T05:35:57;0.50;;;0.50;;
62945;SDS011;52164;52.212;-1.010;2022-10-26T05:38:22;0.50;;;0.50;;
62945;SDS011;52164;52.212;-1.010;2022-10-26T05:43:14;0.50;;;0.50;;
62945;SDS011;52164;52.212;-1.010;2022-10-26T05:45:40;0.50;;;0.50;;
62945;SDS011;52164;52.212;-1.010;2022-10-26T05:48:05;0.50;;;0.50;;
62945;SDS011;52164;52.212;-1.010;2022-10-26T05:50:31;0.60;;;0.60;;
62945;SDS011;52164;52.212;-1.010;2022-10-26T05:52:56;0.60;;;0.60;;
62945;SDS011;52164;52.212;-1.010;2022-10-26T05:55:21;0.60;;;0.60;;
62945;SDS011;52164;52.212;-1.010;2022-10-26T05:57:47;0.50;;;0.50;;
62945;SDS011;52164;52.212;-1.010;2022-10-26T06:02:58;0.50;;;0.50;;
62945;SDS011;52164;52.212;-1.010;2022-10-26T06:05:34;0.50;;;0.50;;
62945;SDS011;52164;52.212;-1.010;2022-10-26T06:08:07;0.60;;;0.60;;
62945;SDS011;52164;52.212;-1.010;2022-10-26T06:10:34;0.60;;;0.60;;
62945;SDS011;52164;52.212;-1.010;2022-10-26T06:13:02;0.50;;;0.50;;
62945;SDS011;52164;52.212;-1.010;2022-10-26T06:15:27;0.50;;;0.50;;
62945;SDS011;52164;52.212;-1.010;2022-10-26T06:18:15;0.60;;;0.60;;
62945;SDS011;52164;52.212;-1.010;2022-10-26T06:24:02;0.60;;;0.60;;
62945;SDS011;52164;52.212;-1.010;2022-10-26T06:26:32;0.60;;;0.60;;
62945;SDS011;52164;52.212;-1.010;2022-10-26T06:29:13;0.50;;;0.50;;
62945;SDS011;52164;52.212;-1.010;2022-10-26T06:32:01;0.60;;;0.60;;
62945;SDS011;52164;52.212;-1.010;2022-10-26T06:34:28;0.60;;;0.60;;
62945;SDS011;52164;52.212;-1.010;2022-10-26T06:36:59;0.50;;;0.50;;
62945;SDS011;52164;52.212;-1.010;2022-10-26T06:39:26;0.50;;;0.50;;
62945;SDS011;52164;52.212;-1.010;2022-10-26T06:41:55;0.60;;;0.60;;
62945;SDS011;52164;52.212;-1.010;2022-10-26T06:44:22;0.60;;;0.60;;
62945;SDS011;52164;52.212;-1.010;2022-10-26T06:46:58;0.60;;;0.60;;
62945;SDS011;52164;52.212;-1.010;2022-10-26T06:49:30;0.60;;;0.60;;
62945;SDS011;52164;52.212;-1.010;2022-10-26T06:52:02;0.60;;;0.60;;
62945;SDS011;52164;52.212;-1.010;2022-10-26T06:54:50;0.50;;;0.50;;
62945;SDS011;52164;52.212;-1.010;2022-10-26T06:57:18;0.50;;;0.50;;
62945;SDS011;52164;52.212;-1.010;2022-10-26T07:02:16;0.60;;;0.60;;
62945;SDS011;52164;52.212;-1.010;2022-10-26T07:04:42;0.60;;;0.60;;
62945;SDS011;52164;52.212;-1.010;2022-10-26T07:07:13;0.60;;;0.60;;
62945;SDS011;52164;52.212;-1.010;2022-10-26T07:09:42;0.50;;;0.50;;
62945;SDS011;52164;52.212;-1.010;2022-10-26T07:12:07;0.60;;;0.60;;
62945;SDS011;52164;52.212;-1.010;2022-10-26T07:14:33;0.60;;;0.60;;
62945;SDS011;52164;52.212;-1.010;2022-10-26T07:16:58;0.60;;;0.60;;
62945;SDS011;52164;52.212;-1.010;2022-10-26T07:19:25;0.60;;;0.60;;
62945;SDS011;52164;52.212;-1.010;2022-10-26T07:21:52;0.60;;;0.60;;
62945;SDS011;52164;52.212;-1.010;2022-10-26T07:24:20;0.60;;;0.60;;
62945;SDS011;52164;52.212;-1.010;2022-10-26T07:26:46;0.60;;;0.60;;
62945;SDS011;52164;52.212;-1.010;2022-10-26T07:29:11;0.60;;;0.60;;
62945;SDS011;52164;52.212;-1.010;2022-10-26T07:31:38;0.60;;;0.60;;
62945;SDS011;52164;52.212;-1.010;2022-10-26T07:34:07;0.60;;;0.60;;
62945;SDS011;52164;52.212;-1.010;2022-10-26T07:36:32;0.60;;;0.60;;
62945;SDS011;52164;52.212;-1.010;2022-10-26T07:39:00;0.60;;;0.60;;
62945;SDS011;52164;52.212;-1.010;2022-10-26T07:41:26;0.50;;;0.50;;
62945;SDS011;52164;52.212;-1.010;2022-10-26T07:43:52;0.50;;;0.50;;
62945;SDS011;52164;52.212;-1.010;2022-10-26T07:46:17;0.70;;;0.70;;
62945;SDS011;52164;52.212;-1.010;2022-10-26T07:48:43;0.60;;;0.60;;
62945;SDS011;52164;52.212;-1.010;2022-10-26T07:51:08;0.60;;;0.60;;
62945;SDS011;52164;52.212;-1.010;2022-10-26T07:53:34;0.60;;;0.60;;
62945;SDS011;52164;52.212;-1.010;2022-10-26T07:55:59;0.60;;;0.60;;
62945;SDS011;52164;52.212;-1.010;2022-10-26T07:58:25;0.70;;;0.70;;
62945;SDS011;52164;52.212;-1.010;2022-10-26T08:00:51;0.60;;;0.60;;
62945;SDS011;52164;52.212;-1.010;2022-10-26T08:03:18;0.60;;;0.60;;
62945;SDS011;52164;52.212;-1.010;2022-10-26T08:05:44;0.50;;;0.50;;
62945;SDS011;52164;52.212;-1.010;2022-10-26T08:10:43;0.50;;;0.50;;
62945;SDS011;52164;52.212;-1.010;2022-10-26T08:13:09;0.60;;;0.60;;
62945;SDS011;52164;52.212;-1.010;2022-10-26T08:15:37;0.60;;;0.60;;
62945;SDS011;52164;52.212;-1.010;2022-10-26T08:18:02;0.50;;;0.50;;
62945;SDS011;52164;52.212;-1.010;2022-10-26T08:20:28;0.60;;;0.60;;
62945;SDS011;52164;52.212;-1.010;2022-10-26T08:23:00;0.60;;;0.60;;
62945;SDS011;52164;52.212;-1.010;2022-10-26T08:25:28;0.60;;;0.60;;
62945;SDS011;52164;52.212;-1.010;2022-10-26T08:28:00;0.60;;;0.60;;
62945;SDS011;52164;52.212;-1.010;2022-10-26T08:30:27;0.60;;;0.60;;
62945;SDS011;52164;52.212;-1.010;2022-10-26T08:33:01;0.60;;;0.60;;
62945;SDS011;52164;52.212;-1.010;2022-10-26T08:35:28;0.60;;;0.60;;
62945;SDS011;52164;52.212;-1.010;2022-10-26T08:37:54;0.60;;;0.60;;
62945;SDS011;52164;52.212;-1.010;2022-10-26T08:40:23;0.60;;;0.60;;
62945;SDS011;52164;52.212;-1.010;2022-10-26T08:42:54;0.50;;;0.50;;
62945;SDS011;52164;52.212;-1.010;2022-10-26T08:45:29;0.60;;;0.60;;
62945;SDS011;52164;52.212;-1.010;2022-10-26T08:48:00;0.50;;;0.50;;
62945;SDS011;52164;52.212;-1.010;2022-10-26T08:55:39;0.50;;;0.50;;
62945;SDS011;52164;52.212;-1.010;2022-10-26T08:58:12;0.50;;;0.50;;
62945;SDS011;52164;52.212;-1.010;2022-10-26T09:00:40;0.60;;;0.60;;
62945;SDS011;52164;52.212;-1.010;2022-10-26T09:03:14;0.50;;;0.50;;
62945;SDS011;52164;52.212;-1.010;2022-10-26T09:05:51;0.60;;;0.60;;
62945;SDS011;52164;52.212;-1.010;2022-10-26T09:08:41;0.50;;;0.50;;
62945;SDS011;52164;52.212;-1.010;2022-10-26T09:14:20;0.50;;;0.50;;
62945;SDS011;52164;52.212;-1.010;2022-10-26T09:17:12;0.60;;;0.60;;
62945;SDS011;52164;52.212;-1.010;2022-10-26T09:22:31;0.50;;;0.50;;
62945;SDS011;52164;52.212;-1.010;2022-10-26T09:25:17;0.60;;;0.60;;
62945;SDS011;52164;52.212;-1.010;2022-10-26T09:27:46;0.50;;;0.50;;
62945;SDS011;52164;52.212;-1.010;2022-10-26T09:30:17;0.60;;;0.60;;
62945;SDS011;52164;52.212;-1.010;2022-10-26T09:32:46;0.60;;;0.60;;
62945;SDS011;52164;52.212;-1.010;2022-10-26T09:35:38;0.60;;;0.60;;
62945;SDS011;52164;52.212;-1.010;2022-10-26T09:38:07;0.60;;;0.60;;
62945;SDS011;52164;52.212;-1.010;2022-10-26T09:40:41;0.60;;;0.60;;
62945;SDS011;52164;52.212;-1.010;2022-10-26T09:43:17;0.60;;;0.60;;
62945;SDS011;52164;52.212;-1.010;2022-10-26T09:45:49;0.60;;;0.60;;
62945;SDS011;52164;52.212;-1.010;2022-10-26T09:48:49;0.50;;;0.50;;
62945;SDS011;52164;52.212;-1.010;2022-10-26T09:51:20;0.60;;;0.60;;
62945;SDS011;52164;52.212;-1.010;2022-10-26T09:53:47;0.60;;;0.60;;
62945;SDS011;52164;52.212;-1.010;2022-10-26T09:56:14;0.50;;;0.50;;
62945;SDS011;52164;52.212;-1.010;2022-10-26T09:58:43;0.50;;;0.50;;
62945;SDS011;52164;52.212;-1.010;2022-10-26T10:01:30;0.50;;;0.50;;
62945;SDS011;52164;52.212;-1.010;2022-10-26T10:04:16;0.50;;;0.50;;
62945;SDS011;52164;52.212;-1.010;2022-10-26T10:06:45;0.50;;;0.50;;
62945;SDS011;52164;52.212;-1.010;2022-10-26T10:09:16;0.50;;;0.50;;
62945;SDS011;52164;52.212;-1.010;2022-10-26T10:12:01;0.50;;;0.50;;
62945;SDS011;52164;52.212;-1.010;2022-10-26T10:14:30;0.50;;;0.50;;
62945;SDS011;52164;52.212;-1.010;2022-10-26T10:17:01;0.50;;;0.50;;
62945;SDS011;52164;52.212;-1.010;2022-10-26T10:19:30;0.50;;;0.50;;
62945;SDS011;52164;52.212;-1.010;2022-10-26T10:21:58;0.60;;;0.60;;
62945;SDS011;52164;52.212;-1.010;2022-10-26T10:27:23;0.50;;;0.50;;
62945;SDS011;52164;52.212;-1.010;2022-10-26T10:29:42;0.50;;;0.50;;
62945;SDS011;52164;52.212;-1.010;2022-10-26T10:32:13;0.50;;;0.50;;
62945;SDS011;52164;52.212;-1.010;2022-10-26T10:34:40;0.50;;;0.50;;
62945;SDS011;52164;52.212;-1.010;2022-10-26T10:37:06;0.50;;;0.50;;
62945;SDS011;52164;52.212;-1.010;2022-10-26T10:39:55;0.60;;;0.60;;
62945;SDS011;52164;52.212;-1.010;2022-10-26T10:42:24;0.60;;;0.60;;
62945;SDS011;52164;52.212;-1.010;2022-10-26T10:44:54;0.60;;;0.60;;
62945;SDS011;52164;52.212;-1.010;2022-10-26T10:47:22;0.50;;;0.50;;
62945;SDS011;52164;52.212;-1.010;2022-10-26T10:49:57;0.50;;;0.50;;
62945;SDS011;52164;52.212;-1.010;2022-10-26T10:52:25;0.60;;;0.60;;
62945;SDS011;52164;52.212;-1.010;2022-10-26T10:54:58;0.50;;;0.50;;
62945;SDS011;52164;52.212;-1.010;2022-10-26T10:57:52;0.60;;;0.60;;
62945;SDS011;52164;52.212;-1.010;2022-10-26T11:00:19;0.50;;;0.50;;
62945;SDS011;52164;52.212;-1.010;2022-10-26T11:02:54;0.60;;;0.60;;
62945;SDS011;52164;52.212;-1.010;2022-10-26T11:08:34;0.60;;;0.60;;
62945;SDS011;52164;52.212;-1.010;2022-10-26T11:11:08;0.50;;;0.50;;
62945;SDS011;52164;52.212;-1.010;2022-10-26T11:13:38;0.60;;;0.60;;
62945;SDS011;52164;52.212;-1.010;2022-10-26T11:16:15;0.50;;;0.50;;
62945;SDS011;52164;52.212;-1.010;2022-10-26T11:18:49;0.60;;;0.60;;
62945;SDS011;52164;52.212;-1.010;2022-10-26T11:21:27;0.60;;;0.60;;
62945;SDS011;52164;52.212;-1.010;2022-10-26T11:24:01;0.50;;;0.50;;
62945;SDS011;52164;52.212;-1.010;2022-10-26T11:26:50;0.60;;;0.60;;
62945;SDS011;52164;52.212;-1.010;2022-10-26T11:31:46;0.50;;;0.50;;
62945;SDS011;52164;52.212;-1.010;2022-10-26T11:34:53;0.50;;;0.50;;
62945;SDS011;52164;52.212;-1.010;2022-10-26T11:37:12;0.50;;;0.50;;
62945;SDS011;52164;52.212;-1.010;2022-10-26T11:39:45;0.50;;;0.50;;
62945;SDS011;52164;52.212;-1.010;2022-10-26T11:45:08;0.50;;;0.50;;
62945;SDS011;52164;52.212;-1.010;2022-10-26T11:47:47;0.50;;;0.50;;
62945;SDS011;52164;52.212;-1.010;2022-10-26T11:50:16;0.60;;;0.60;;
62945;SDS011;52164;52.212;-1.010;2022-10-26T11:52:48;0.60;;;0.60;;
62945;SDS011;52164;52.212;-1.010;2022-10-26T11:55:24;0.50;;;0.50;;
62945;SDS011;52164;52.212;-1.010;2022-10-26T11:57:50;0.50;;;0.50;;
62945;SDS011;52164;52.212;-1.010;2022-10-26T12:00:18;0.50;;;0.50;;
62945;SDS011;52164;52.212;-1.010;2022-10-26T12:02:52;0.70;;;0.70;;
62945;SDS011;52164;52.212;-1.010;2022-10-26T12:05:31;0.60;;;0.60;;
62945;SDS011;52164;52.212;-1.010;2022-10-26T12:08:02;0.50;;;0.50;;
62945;SDS011;52164;52.212;-1.010;2022-10-26T12:10:33;0.50;;;0.50;;
62945;SDS011;52164;52.212;-1.010;2022-10-26T12:13:20;0.60;;;0.60;;
62945;SDS011;52164;52.212;-1.010;2022-10-26T12:16:05;0.50;;;0.50;;
62945;SDS011;52164;52.212;-1.010;2022-10-26T12:21:17;0.50;;;0.50;;
62945;SDS011;52164;52.212;-1.010;2022-10-26T12:24:00;0.60;;;0.60;;
62945;SDS011;52164;52.212;-1.010;2022-10-26T12:26:49;0.50;;;0.50;;
62945;SDS011;52164;52.212;-1.010;2022-10-26T12:29:24;0.60;;;0.60;;
62945;SDS011;52164;52.212;-1.010;2022-10-26T12:32:01;0.60;;;0.60;;
62945;SDS011;52164;52.212;-1.010;2022-10-26T12:39:28;0.50;;;0.50;;
62945;SDS011;52164;52.212;-1.010;2022-10-26T12:44:39;0.60;;;0.60;;
62945;SDS011;52164;52.212;-1.010;2022-10-26T12:52:44;0.60;;;0.60;;
62945;SDS011;52164;52.212;-1.010;2022-10-26T12:56:23;0.50;;;0.50;;
62945;SDS011;52164;52.212;-1.010;2022-10-26T13:00:31;0.60;;;0.60;;
62945;SDS011;52164;52.212;-1.010;2022-10-26T13:03:07;0.60;;;0.60;;
62945;SDS011;52164;52.212;-1.010;2022-10-26T13:06:00;0.60;;;0.60;;
62945;SDS011;52164;52.212;-1.010;2022-10-26T13:08:36;0.50;;;0.50;;
62945;SDS011;52164;52.212;-1.010;2022-10-26T13:11:06;0.60;;;0.60;;
62945;SDS011;52164;52.212;-1.010;2022-10-26T13:13:40;0.50;;;0.50;;
62945;SDS011;52164;52.212;-1.010;2022-10-26T13:16:09;0.60;;;0.60;;
62945;SDS011;52164;52.212;-1.010;2022-10-26T13:18:40;0.60;;;0.60;;
62945;SDS011;52164;52.212;-1.010;2022-10-26T13:21:09;0.60;;;0.60;;
62945;SDS011;52164;52.212;-1.010;2022-10-26T13:23:39;0.50;;;0.50;;
62945;SDS011;52164;52.212;-1.010;2022-10-26T13:31:02;0.50;;;0.50;;
62945;SDS011;52164;52.212;-1.010;2022-10-26T13:33:30;0.60;;;0.60;;
62945;SDS011;52164;52.212;-1.010;2022-10-26T13:36:05;0.50;;;0.50;;
62945;SDS011;52164;52.212;-1.010;2022-10-26T13:38:41;0.50;;;0.50;;
62945;SDS011;52164;52.212;-1.010;2022-10-26T13:41:16;0.60;;;0.60;;
62945;SDS011;52164;52.212;-1.010;2022-10-26T13:43:47;0.60;;;0.60;;
62945;SDS011;52164;52.212;-1.010;2022-10-26T13:46:21;0.50;;;0.50;;
62945;SDS011;52164;52.212;-1.010;2022-10-26T13:48:53;0.50;;;0.50;;
62945;SDS011;52164;52.212;-1.010;2022-10-26T13:51:25;0.70;;;0.70;;
62945;SDS011;52164;52.212;-1.010;2022-10-26T13:54:09;0.60;;;0.60;;
62945;SDS011;52164;52.212;-1.010;2022-10-26T13:56:47;0.90;;;0.90;;
62945;SDS011;52164;52.212;-1.010;2022-10-26T13:59:36;0.80;;;0.80;;
62945;SDS011;52164;52.212;-1.010;2022-10-26T14:02:05;0.70;;;0.70;;
62945;SDS011;52164;52.212;-1.010;2022-10-26T14:04:39;0.50;;;0.50;;
62945;SDS011;52164;52.212;-1.010;2022-10-26T14:07:05;0.60;;;0.60;;
62945;SDS011;52164;52.212;-1.010;2022-10-26T14:09:37;1.10;;;1.10;;
62945;SDS011;52164;52.212;-1.010;2022-10-26T14:12:02;1.00;;;1.00;;
62945;SDS011;52164;52.212;-1.010;2022-10-26T14:14:28;0.90;;;0.90;;
62945;SDS011;52164;52.212;-1.010;2022-10-26T14:16:56;1.00;;;1.00;;
62945;SDS011;52164;52.212;-1.010;2022-10-26T14:19:27;1.20;;;1.20;;
62945;SDS011;52164;52.212;-1.010;2022-10-26T14:21:54;1.20;;;1.20;;
62945;SDS011;52164;52.212;-1.010;2022-10-26T14:24:23;1.10;;;1.10;;
62945;SDS011;52164;52.212;-1.010;2022-10-26T14:26:55;0.90;;;0.90;;
62945;SDS011;52164;52.212;-1.010;2022-10-26T14:29:23;0.90;;;0.90;;
62945;SDS011;52164;52.212;-1.010;2022-10-26T14:31:52;1.20;;;1.20;;
62945;SDS011;52164;52.212;-1.010;2022-10-26T14:34:19;1.10;;;1.10;;
62945;SDS011;52164;52.212;-1.010;2022-10-26T14:36:47;1.00;;;1.00;;
62945;SDS011;52164;52.212;-1.010;2022-10-26T14:41:48;0.60;;;0.60;;
62945;SDS011;52164;52.212;-1.010;2022-10-26T14:44:17;0.60;;;0.60;;
62945;SDS011;52164;52.212;-1.010;2022-10-26T14:46:48;0.40;;;0.40;;
62945;SDS011;52164;52.212;-1.010;2022-10-26T14:49:17;0.40;;;0.40;;
62945;SDS011;52164;52.212;-1.010;2022-10-26T14:51:44;0.70;;;0.70;;
62945;SDS011;52164;52.212;-1.010;2022-10-26T14:54:26;0.40;;;0.40;;
62945;SDS011;52164;52.212;-1.010;2022-10-26T14:56:54;0.60;;;0.60;;
62945;SDS011;52164;52.212;-1.010;2022-10-26T14:59:23;0.80;;;0.80;;
62945;SDS011;52164;52.212;-1.010;2022-10-26T15:04:32;0.60;;;0.60;;
62945;SDS011;52164;52.212;-1.010;2022-10-26T15:07:06;0.60;;;0.60;;
62945;SDS011;52164;52.212;-1.010;2022-10-26T15:09:43;0.70;;;0.70;;
62945;SDS011;52164;52.212;-1.010;2022-10-26T15:12:28;0.70;;;0.70;;
62945;SDS011;52164;52.212;-1.010;2022-10-26T15:14:58;1.20;;;1.20;;
62945;SDS011;52164;52.212;-1.010;2022-10-26T15:18:00;0.70;;;0.70;;
62945;SDS011;52164;52.212;-1.010;2022-10-26T15:20:26;0.50;;;0.50;;
62945;SDS011;52164;52.212;-1.010;2022-10-26T15:25:25;0.70;;;0.70;;
62945;SDS011;52164;52.212;-1.010;2022-10-26T15:27:53;0.60;;;0.60;;
62945;SDS011;52164;52.212;-1.010;2022-10-26T15:30:20;0.70;;;0.70;;
62945;SDS011;52164;52.212;-1.010;2022-10-26T15:32:49;0.80;;;0.80;;
62945;SDS011;52164;52.212;-1.010;2022-10-26T15:37:43;0.60;;;0.60;;
62945;SDS011;52164;52.212;-1.010;2022-10-26T15:40:10;0.70;;;0.70;;
62945;SDS011;52164;52.212;-1.010;2022-10-26T15:42:37;0.40;;;0.40;;
62945;SDS011;52164;52.212;-1.010;2022-10-26T15:45:13;0.40;;;0.40;;
62945;SDS011;52164;52.212;-1.010;2022-10-26T15:47:39;0.70;;;0.70;;
62945;SDS011;52164;52.212;-1.010;2022-10-26T15:50:10;0.50;;;0.50;;
62945;SDS011;52164;52.212;-1.010;2022-10-26T15:52:37;0.50;;;0.50;;
62945;SDS011;52164;52.212;-1.010;2022-10-26T15:55:02;0.50;;;0.50;;
62945;SDS011;52164;52.212;-1.010;2022-10-26T15:57:28;0.50;;;0.50;;
62945;SDS011;52164;52.212;-1.010;2022-10-26T15:59:53;0.50;;;0.50;;
62945;SDS011;52164;52.212;-1.010;2022-10-26T16:02:19;0.40;;;0.40;;
62945;SDS011;52164;52.212;-1.010;2022-10-26T16:04:44;0.40;;;0.40;;
62945;SDS011;52164;52.212;-1.010;2022-10-26T16:07:11;0.40;;;0.40;;
62945;SDS011;52164;52.212;-1.010;2022-10-26T16:09:38;0.40;;;0.40;;